createdAt,value
2019-03-10T11:27:46.752Z,0.70
2019-03-10T11:33:04.814Z,1.00
2019-03-10T11:38:34.167Z,0.70
2019-03-10T11:44:08.641Z,0.83
2019-03-10T11:49:33.726Z,0.70
2019-03-10T11:54:57.457Z,0.93
2019-03-10T12:00:29.452Z,0.83
2019-03-10T12:05:54.177Z,1.00
2019-03-10T12:11:03.287Z,0.70
2019-03-10T12:16:08.828Z,1.13
2019-03-10T12:21:13.778Z,0.80
2019-03-10T12:26:18.607Z,0.90
2019-03-10T12:31:25.395Z,0.80
2019-03-10T12:36:30.403Z,0.90
2019-03-10T12:41:34.390Z,1.00
2019-03-10T12:46:39.352Z,1.17
2019-03-10T12:51:44.576Z,1.07
2019-03-10T12:56:48.705Z,1.20
2019-03-10T13:01:52.784Z,0.90
2019-03-10T13:06:56.856Z,1.23
2019-03-10T13:12:02.633Z,1.00
2019-03-10T13:17:06.944Z,1.00
2019-03-10T13:22:11.109Z,1.10
2019-03-10T13:27:14.551Z,1.17
2019-03-10T13:32:19.708Z,1.30
2019-03-10T13:37:23.993Z,1.43
2019-03-10T13:42:28.151Z,1.47
2019-03-10T13:47:32.768Z,1.50
2019-03-10T13:52:36.895Z,1.47
2019-03-10T13:57:42.136Z,1.60
2019-03-10T14:02:46.612Z,1.73
2019-03-10T14:07:52.174Z,1.57
2019-03-10T14:12:57.732Z,2.20
2019-03-10T14:18:03.181Z,2.10
2019-03-10T14:23:08.623Z,1.70
2019-03-10T14:28:13.041Z,2.10
2019-03-10T14:33:19.189Z,1.53
2019-03-10T14:38:24.452Z,1.60
2019-03-10T14:43:30.217Z,1.93
2019-03-10T14:48:35.662Z,1.60
2019-03-10T14:53:40.627Z,1.40
2019-03-10T14:58:45.730Z,1.50
2019-03-10T15:03:51.144Z,1.80
2019-03-10T15:08:58.314Z,1.53
2019-03-10T15:14:03.372Z,1.23
2019-03-10T15:19:08.888Z,1.40
2019-03-10T15:24:13.077Z,1.30
2019-03-10T15:29:18.304Z,1.70
2019-03-10T15:34:24.298Z,1.37
2019-03-10T15:39:29.555Z,1.57
2019-03-10T15:44:34.448Z,1.43
2019-03-10T15:49:39.639Z,1.70
2019-03-10T15:54:44.419Z,1.07
2019-03-10T15:59:49.405Z,1.43
2019-03-10T16:04:54.807Z,1.20
2019-03-10T16:10:00.415Z,1.87
2019-03-10T16:15:06.392Z,1.83
2019-03-10T16:20:11.926Z,1.30
2019-03-10T16:25:16.679Z,1.47
2019-03-10T16:30:22.099Z,1.77
2019-03-10T16:35:28.359Z,1.10
2019-03-10T16:40:33.861Z,1.00
2019-03-10T16:45:39.113Z,1.20
2019-03-10T16:50:44.059Z,1.00
2019-03-10T16:55:49.130Z,1.50
2019-03-10T17:00:54.644Z,1.17
2019-03-10T17:05:59.881Z,0.93
2019-03-10T17:11:05.592Z,1.20
2019-03-10T17:16:10.804Z,0.90
2019-03-10T17:21:16.914Z,0.90
2019-03-10T17:26:20.556Z,0.80
2019-03-10T17:31:25.284Z,0.60
2019-03-10T17:36:30.324Z,0.90
2019-03-10T17:41:34.618Z,0.90
2019-03-10T17:46:39.624Z,0.80
2019-03-10T17:51:44.769Z,0.93
2019-03-10T17:56:49.064Z,0.80
2019-03-10T18:01:54.031Z,0.90
2019-03-10T18:06:58.287Z,1.00
2019-03-10T18:12:04.303Z,1.30
2019-03-10T18:17:08.607Z,1.00
2019-03-10T18:22:12.727Z,0.90
2019-03-10T18:27:16.118Z,1.03
2019-03-10T18:32:22.878Z,1.10
2019-03-10T18:37:31.762Z,1.20
2019-03-10T18:42:35.583Z,1.03
2019-03-10T18:47:42.460Z,0.80
2019-03-10T18:52:48.342Z,0.90
2019-03-10T18:57:53.066Z,0.70
2019-03-10T19:02:58.275Z,0.90
2019-03-10T19:08:02.037Z,0.60
2019-03-10T19:13:06.312Z,0.77
2019-03-10T19:18:11.389Z,3.63
2019-03-10T19:23:36.704Z,3.60
2019-03-10T19:28:42.545Z,5.60
2019-03-10T19:33:49.535Z,3.03
2019-03-10T19:38:55.453Z,2.50
2019-03-10T19:44:00.672Z,1.90
2019-03-10T19:49:05.824Z,1.40
2019-03-10T19:54:10.704Z,1.30
2019-03-10T19:59:15.916Z,1.10
2019-03-10T20:04:21.008Z,0.83
2019-03-10T20:09:26.671Z,1.00
2019-03-10T20:14:34.090Z,1.10
2019-03-10T20:19:39.240Z,0.90
2019-03-10T20:24:43.937Z,0.97
2019-03-10T20:29:49.650Z,1.20
2019-03-10T20:34:54.504Z,1.30
2019-03-10T20:39:59.708Z,1.63
2019-03-10T20:45:05.657Z,1.90
2019-03-10T20:50:13.467Z,1.30
2019-03-10T20:55:19.089Z,1.27
2019-03-10T21:00:24.732Z,1.33
2019-03-10T21:05:30.561Z,1.73
2019-03-10T21:10:35.872Z,1.40
2019-03-10T21:15:51.178Z,1.10
2019-03-10T21:20:56.567Z,1.10
2019-03-10T21:26:01.470Z,1.17
2019-03-10T21:31:07.276Z,1.10
2019-03-10T21:36:12.254Z,1.10
2019-03-10T21:41:17.058Z,0.80
2019-03-10T21:46:20.527Z,0.93
2019-03-10T21:51:24.647Z,1.10
2019-03-10T21:56:29.717Z,1.10
2019-03-10T22:01:34.363Z,1.30
2019-03-10T22:07:20.578Z,1.10
2019-03-10T22:12:25.222Z,1.60
2019-03-10T22:17:29.770Z,1.63
2019-03-10T22:22:37.072Z,1.60
2019-03-10T22:27:40.425Z,1.97
2019-03-10T22:32:45.354Z,2.10
2019-03-10T22:37:49.522Z,2.00
2019-03-10T22:42:54.661Z,2.37
2019-03-10T22:47:59.057Z,2.20
2019-03-10T22:53:03.072Z,1.90
2019-03-10T22:58:07.996Z,2.30
2019-03-10T23:03:13.510Z,2.00
2019-03-10T23:08:18.108Z,1.97
2019-03-10T23:13:23.254Z,2.07
2019-03-10T23:18:28.316Z,2.00
2019-03-10T23:23:33.471Z,2.40
2019-03-10T23:28:38.683Z,2.47
2019-03-10T23:33:43.493Z,2.20
2019-03-10T23:38:48.533Z,2.00
2019-03-10T23:43:53.823Z,2.10
2019-03-10T23:48:58.818Z,2.00
2019-03-10T23:54:04.049Z,2.10
2019-03-10T23:59:09.167Z,2.13
